Aviation Digital Data Service (ADDS)

Output produced by METARs form (1249 UTC 24 May 2019)
found at http://www.aviationweather.gov/metar/data/
 
TAF FGSL 241100Z 2412/2518 24008KT 9999 SCT010 FEW020CB 
     BECMG 2417/2419 TS 
     PROB30 
     TEMPO 2423/2506 4000 TSRA BKN008 FEW018CB 
     BECMG 2506/2508 NSW 
     PROB30 2511/2517 BKN010 FEW020CB